Time;durP1;ratioP1;P1;durP2;ratioP2;P2;SDS_P1;SDS_P2;PMS_P1;PMS_P2;Temp;Humidity;BMP_temperature;BMP_pressure;BME280_temperature;BME280_humidity;BME280_pressure;Samples;Min_cycle;Max_cycle;Signal;HPM_P1;HPM_P2
2023/01/14 00:00:48;;;;;;;21.90;8.98;;;;;;;;;;5033747;28;20025;-70
2023/01/14 00:03:14;;;;;;;19.90;9.02;;;;;;;;;;5033547;28;20040;-70
2023/01/14 00:05:41;;;;;;;28.02;8.65;;;;;;;;;;5033695;28;20429;-70
2023/01/14 00:08:08;;;;;;;28.67;10.50;;;;;;;;;;5033609;28;20040;-70
2023/01/14 00:10:37;;;;;;;23.10;10.00;;;;;;;;;;5033679;28;20036;-70
2023/01/14 00:13:03;;;;;;;19.85;8.40;;;;;;;;;;5032315;28;20405;-70
2023/01/14 00:15:29;;;;;;;17.27;7.93;;;;;;;;;;5033850;28;20026;-70
2023/01/14 00:17:55;;;;;;;18.70;7.78;;;;;;;;;;5033377;28;20028;-70
2023/01/14 00:20:22;;;;;;;21.65;6.40;;;;;;;;;;5033488;28;20438;-70
2023/01/14 00:22:49;;;;;;;19.77;6.03;;;;;;;;;;5033474;28;20395;-70
2023/01/14 00:25:15;;;;;;;31.90;13.93;;;;;;;;;;5033861;28;20021;-70
2023/01/14 00:27:41;;;;;;;31.90;11.10;;;;;;;;;;5033438;28;20037;-70
2023/01/14 00:30:08;;;;;;;22.08;8.45;;;;;;;;;;5033281;28;20030;-70
2023/01/14 00:32:34;;;;;;;24.02;8.25;;;;;;;;;;5032786;28;20043;-70
2023/01/14 00:35:00;;;;;;;17.35;6.22;;;;;;;;;;5033232;28;20472;-70
2023/01/14 00:37:26;;;;;;;19.65;6.18;;;;;;;;;;5033200;28;20035;-70
2023/01/14 00:39:53;;;;;;;17.85;7.03;;;;;;;;;;5033114;28;20395;-69
2023/01/14 00:42:19;;;;;;;20.20;7.13;;;;;;;;;;5033305;28;20025;-70
2023/01/14 00:44:46;;;;;;;20.55;6.68;;;;;;;;;;5033016;28;20021;-70
2023/01/14 00:47:12;;;;;;;17.58;5.10;;;;;;;;;;5032970;28;20022;-70
2023/01/14 00:49:38;;;;;;;17.27;4.75;;;;;;;;;;5033371;28;20029;-70
2023/01/14 00:52:05;;;;;;;19.27;3.92;;;;;;;;;;5032421;28;20053;-70
2023/01/14 00:54:32;;;;;;;16.35;4.50;;;;;;;;;;5033269;28;20033;-69
2023/01/14 00:56:58;;;;;;;15.20;4.40;;;;;;;;;;5033046;28;20401;-70
2023/01/14 00:59:24;;;;;;;14.05;3.80;;;;;;;;;;5032699;28;20052;-70
2023/01/14 01:01:51;;;;;;;15.77;4.43;;;;;;;;;;5032413;28;20032;-70
2023/01/14 01:04:18;;;;;;;21.65;6.75;;;;;;;;;;5032623;28;20036;-69
2023/01/14 01:06:44;;;;;;;20.25;7.13;;;;;;;;;;5064947;28;20056;-69
2023/01/14 01:09:11;;;;;;;21.65;6.78;;;;;;;;;;5064828;28;20037;-70
2023/01/14 01:11:37;;;;;;;16.55;6.40;;;;;;;;;;5032462;28;20013;-70
2023/01/14 01:14:03;;;;;;;20.88;6.35;;;;;;;;;;5032540;28;20432;-70
2023/01/14 01:16:29;;;;;;;11.63;5.05;;;;;;;;;;5032115;28;20389;-70
2023/01/14 01:18:57;;;;;;;17.92;5.50;;;;;;;;;;5032485;28;20482;-70
2023/01/14 01:21:24;;;;;;;20.67;6.60;;;;;;;;;;5032129;28;20017;-70
2023/01/14 01:23:50;;;;;;;19.55;6.10;;;;;;;;;;5031056;28;20386;-70
2023/01/14 01:26:21;;;;;;;15.95;6.22;;;;;;;;;;5032599;28;20029;-70
2023/01/14 01:28:48;;;;;;;18.38;6.05;;;;;;;;;;5031124;28;20032;-70
2023/01/14 01:31:15;;;;;;;18.13;6.30;;;;;;;;;;5031927;28;20029;-70
2023/01/14 01:33:41;;;;;;;17.23;6.25;;;;;;;;;;5032292;28;20045;-70
2023/01/14 01:36:11;;;;;;;16.58;6.45;;;;;;;;;;5032099;28;20022;-70
2023/01/14 01:38:37;;;;;;;21.80;7.28;;;;;;;;;;5032358;28;20025;-70
2023/01/14 01:41:03;;;;;;;20.23;7.57;;;;;;;;;;5032346;28;20036;-70
2023/01/14 01:43:31;;;;;;;18.23;6.75;;;;;;;;;;5064141;28;20029;-70
2023/01/14 01:45:57;;;;;;;17.50;6.80;;;;;;;;;;5032203;28;20039;-69
2023/01/14 01:48:30;;;;;;;19.77;8.65;;;;;;;;;;5032110;28;20026;-70
2023/01/14 01:51:19;;;;;;;25.60;7.05;;;;;;;;;;5032083;28;20049;-70
2023/01/14 01:53:48;;;;;;;16.05;5.78;;;;;;;;;;5012278;28;20064;-69
2023/01/14 01:56:23;;;;;;;17.17;5.32;;;;;;;;;;5012482;28;20076;-69
2023/01/14 01:58:50;;;;;;;21.20;6.00;;;;;;;;;;5011967;28;20499;-70
2023/01/14 02:01:17;;;;;;;16.35;5.47;;;;;;;;;;5012524;28;20030;-70
2023/01/14 02:03:44;;;;;;;18.88;5.40;;;;;;;;;;5044026;28;20040;-70
2023/01/14 02:06:11;;;;;;;13.98;4.28;;;;;;;;;;5012199;28;20030;-70
2023/01/14 02:08:39;;;;;;;16.58;5.30;;;;;;;;;;5016938;28;20074;-70
2023/01/14 02:11:05;;;;;;;17.30;5.57;;;;;;;;;;5031980;28;20055;-70
2023/01/14 02:13:38;;;;;;;19.77;6.32;;;;;;;;;;5031364;28;20399;-69
2023/01/14 02:16:07;;;;;;;20.90;5.85;;;;;;;;;;5031842;28;20385;-69
2023/01/14 02:18:36;;;;;;;17.58;5.85;;;;;;;;;;5031870;28;20025;-68
2023/01/14 02:21:14;;;;;;;20.15;5.53;;;;;;;;;;5031725;28;20359;-70
2023/01/14 02:23:47;;;;;;;26.27;6.50;;;;;;;;;;5032025;28;20036;-70
2023/01/14 02:26:26;;;;;;;17.60;6.43;;;;;;;;;;5031474;28;20032;-70
2023/01/14 02:29:07;;;;;;;20.23;6.95;;;;;;;;;;5031564;28;20022;-70
2023/01/14 02:31:36;;;;;;;40.40;13.20;;;;;;;;;;5031848;28;20032;-70
2023/01/14 02:34:06;;;;;;;22.10;6.43;;;;;;;;;;5032578;28;20424;-70
2023/01/14 02:36:41;;;;;;;20.33;6.70;;;;;;;;;;5035656;28;20491;-69
2023/01/14 02:39:14;;;;;;;16.35;5.03;;;;;;;;;;5034235;28;20399;-69
2023/01/14 02:44:27;;;;;;;10.95;4.30;;;;;;;;;;5035599;28;20025;-69
2023/01/14 02:46:56;;;;;;;11.75;3.90;;;;;;;;;;5035398;28;20026;-70
2023/01/14 02:49:24;;;;;;;15.30;4.10;;;;;;;;;;5035154;28;20512;-70
2023/01/14 02:51:50;;;;;;;15.73;4.47;;;;;;;;;;5034897;28;20045;-69
2023/01/14 02:54:17;;;;;;;14.57;4.28;;;;;;;;;;5035309;28;20030;-70
2023/01/14 02:56:45;;;;;;;20.70;4.10;;;;;;;;;;5034653;28;20047;-70
2023/01/14 02:59:11;;;;;;;16.02;4.45;;;;;;;;;;5035103;28;20563;-70
2023/01/14 03:01:37;;;;;;;13.88;3.92;;;;;;;;;;5034849;28;20405;-70
2023/01/14 03:04:16;;;;;;;13.43;4.53;;;;;;;;;;5035008;28;20025;-70
2023/01/14 03:07:02;;;;;;;14.32;4.00;;;;;;;;;;5066767;28;20029;-70
2023/01/14 03:09:42;;;;;;;9.70;4.07;;;;;;;;;;5034786;28;20505;-70
2023/01/14 03:12:44;;;;;;;15.95;5.10;;;;;;;;;;5034514;28;20044;-70
2023/01/14 03:15:10;;;;;;;17.77;5.00;;;;;;;;;;5032679;28;20501;-70
2023/01/14 03:17:39;;;;;;;23.50;4.93;;;;;;;;;;5032504;28;20047;-70
2023/01/14 03:20:13;;;;;;;20.73;4.68;;;;;;;;;;5032400;28;20024;-70
2023/01/14 03:22:42;;;;;;;21.45;5.65;;;;;;;;;;5032522;28;20505;-70
2023/01/14 03:25:09;;;;;;;25.83;6.18;;;;;;;;;;5032302;28;20419;-70
2023/01/14 03:27:37;;;;;;;21.35;5.63;;;;;;;;;;5032318;28;20063;-70
2023/01/14 03:30:06;;;;;;;19.35;6.35;;;;;;;;;;5032620;28;20042;-70
2023/01/14 03:32:41;;;;;;;25.15;7.32;;;;;;;;;;5032447;28;20041;-70
2023/01/14 03:35:11;;;;;;;24.38;6.72;;;;;;;;;;5032549;28;20047;-70
2023/01/14 03:37:44;;;;;;;21.73;6.38;;;;;;;;;;5032534;28;20043;-70
2023/01/14 03:40:12;;;;;;;20.80;7.18;;;;;;;;;;5031848;28;20421;-70
2023/01/14 03:42:44;;;;;;;23.60;6.85;;;;;;;;;;5031975;28;20052;-70
2023/01/14 03:45:11;;;;;;;23.58;6.68;;;;;;;;;;5031789;28;20518;-70
2023/01/14 03:47:37;;;;;;;25.50;7.43;;;;;;;;;;5031980;28;20029;-70
2023/01/14 03:50:06;;;;;;;27.70;7.68;;;;;;;;;;5033809;28;20041;-70
2023/01/14 03:52:51;;;;;;;22.77;8.55;;;;;;;;;;5033797;28;20045;-69
2023/01/14 03:55:31;;;;;;;29.25;8.30;;;;;;;;;;5033796;28;20044;-70
2023/01/14 03:58:02;;;;;;;30.75;8.02;;;;;;;;;;5034058;28;20025;-70
2023/01/14 04:00:28;;;;;;;;;;;;;;;;;;5034776;28;20024;-70
2023/01/14 04:02:57;;;;;;;30.10;7.28;;;;;;;;;;5033817;28;19909;-70
2023/01/14 04:05:23;;;;;;;27.23;6.47;;;;;;;;;;5033855;28;20389;-70
2023/01/14 04:07:51;;;;;;;26.30;7.30;;;;;;;;;;5034132;28;20075;-70
2023/01/14 04:10:17;;;;;;;27.40;6.95;;;;;;;;;;5033312;28;20091;-70
2023/01/14 04:15:29;;;;;;;32.30;7.60;;;;;;;;;;5033628;28;20032;-70
2023/01/14 04:17:55;;;;;;;25.20;6.55;;;;;;;;;;5033677;28;20386;-70
2023/01/14 04:20:22;;;;;;;21.13;6.55;;;;;;;;;;5033640;28;20030;-70
2023/01/14 04:22:48;;;;;;;23.85;6.15;;;;;;;;;;5033395;28;20579;-70
2023/01/14 04:25:15;;;;;;;31.95;6.25;;;;;;;;;;5033236;28;20393;-69
2023/01/14 04:27:41;;;;;;;18.58;5.57;;;;;;;;;;5033705;28;20082;-70
2023/01/14 04:30:08;;;;;;;18.08;6.43;;;;;;;;;;5033441;28;20028;-70
2023/01/14 04:32:34;;;;;;;15.80;4.70;;;;;;;;;;5033465;28;20033;-70
2023/01/14 04:35:01;;;;;;;14.43;5.25;;;;;;;;;;5033330;28;20460;-69
2023/01/14 04:37:27;;;;;;;15.48;5.13;;;;;;;;;;5033454;28;20075;-70
2023/01/14 04:39:54;;;;;;;11.10;4.47;;;;;;;;;;5032991;28;20024;-69
2023/01/14 04:42:26;;;;;;;13.18;4.10;;;;;;;;;;5033259;28;20037;-68
2023/01/14 04:44:56;;;;;;;9.38;4.25;;;;;;;;;;5033510;28;20017;-70
2023/01/14 04:47:22;;;;;;;14.63;3.83;;;;;;;;;;5033342;28;20027;-70
2023/01/14 04:49:49;;;;;;;10.88;3.38;;;;;;;;;;5032200;28;20017;-70
2023/01/14 04:52:15;;;;;;;9.40;4.10;;;;;;;;;;5032240;28;20045;-69
2023/01/14 04:54:42;;;;;;;12.75;3.72;;;;;;;;;;5032851;28;20029;-69
2023/01/14 04:57:08;;;;;;;10.20;3.28;;;;;;;;;;5032159;28;20029;-69
2023/01/14 04:59:35;;;;;;;10.02;3.45;;;;;;;;;;5032935;28;20044;-69
2023/01/14 05:02:01;;;;;;;13.63;2.90;;;;;;;;;;5032783;28;20029;-70
2023/01/14 05:04:27;;;;;;;15.40;2.72;;;;;;;;;;5032835;28;20029;-70
2023/01/14 05:06:54;;;;;;;11.35;2.88;;;;;;;;;;5032386;28;20108;-69
2023/01/14 05:09:21;;;;;;;12.10;2.63;;;;;;;;;;5032484;28;20505;-70
2023/01/14 05:11:47;;;;;;;8.20;2.80;;;;;;;;;;5032982;28;20036;-70
2023/01/14 05:14:13;;;;;;;9.77;2.85;;;;;;;;;;5032618;28;20034;-70
2023/01/14 05:16:39;;;;;;;11.55;2.50;;;;;;;;;;5032525;28;20083;-70
2023/01/14 05:19:06;;;;;;;10.57;3.03;;;;;;;;;;5032580;28;20478;-70
2023/01/14 05:21:32;;;;;;;11.40;2.65;;;;;;;;;;5032160;28;20025;-70
2023/01/14 05:23:58;;;;;;;11.75;2.58;;;;;;;;;;5032617;28;20026;-70
2023/01/14 05:26:25;;;;;;;8.50;2.47;;;;;;;;;;5032447;28;20032;-70
2023/01/14 05:28:51;;;;;;;9.55;2.45;;;;;;;;;;5032198;28;20021;-70
2023/01/14 05:31:17;;;;;;;5.70;1.90;;;;;;;;;;5032190;28;20029;-70
2023/01/14 05:33:44;;;;;;;13.63;2.70;;;;;;;;;;5032120;28;20493;-70
2023/01/14 05:36:10;;;;;;;8.32;2.50;;;;;;;;;;5032029;28;20017;-70
2023/01/14 05:38:36;;;;;;;10.27;2.63;;;;;;;;;;5032376;28;20022;-70
2023/01/14 05:41:03;;;;;;;8.63;2.33;;;;;;;;;;5032141;28;20029;-70
2023/01/14 05:46:15;;;;;;;8.68;2.40;;;;;;;;;;5032227;28;20025;-70
2023/01/14 05:48:42;;;;;;;12.85;2.90;;;;;;;;;;5031996;28;20022;-70
2023/01/14 05:51:11;;;;;;;8.18;2.05;;;;;;;;;;5031546;28;20025;-70
2023/01/14 05:53:37;;;;;;;10.27;2.50;;;;;;;;;;5031705;28;20041;-70
2023/01/14 05:56:04;;;;;;;13.57;2.13;;;;;;;;;;5032001;28;20040;-70
2023/01/14 05:58:30;;;;;;;12.25;2.20;;;;;;;;;;5032031;28;20017;-70
2023/01/14 06:06:34;;;;;;;8.48;2.70;;;;;;;;;;5031645;28;20033;-69
2023/01/14 06:09:06;;;;;;;6.05;1.80;;;;;;;;;;5034536;28;20029;-69
2023/01/14 06:11:32;;;;;;;7.85;1.88;;;;;;;;;;5035940;28;20397;-69
2023/01/14 06:13:59;;;;;;;8.15;1.83;;;;;;;;;;5035863;28;20030;-70
2023/01/14 06:16:27;;;;;;;14.00;2.42;;;;;;;;;;5035932;28;20021;-69
2023/01/14 06:18:53;;;;;;;7.15;1.65;;;;;;;;;;5035896;28;20021;-69
2023/01/14 06:21:22;;;;;;;10.45;2.33;;;;;;;;;;5035443;28;20018;-70
2023/01/14 06:23:49;;;;;;;6.53;2.30;;;;;;;;;;5036069;28;20030;-70
2023/01/14 06:26:17;;;;;;;8.98;1.52;;;;;;;;;;5036172;28;20033;-69
2023/01/14 06:28:44;;;;;;;5.25;1.73;;;;;;;;;;5035606;28;20036;-69
2023/01/14 06:31:10;;;;;;;6.82;1.50;;;;;;;;;;5035437;28;20486;-70
2023/01/14 06:33:36;;;;;;;7.47;2.10;;;;;;;;;;5035005;28;20490;-70
2023/01/14 06:36:03;;;;;;;8.38;1.92;;;;;;;;;;5035514;28;20021;-70
2023/01/14 06:38:29;;;;;;;9.82;2.08;;;;;;;;;;5035447;28;20025;-70
2023/01/14 06:40:58;;;;;;;7.43;2.13;;;;;;;;;;5035290;28;20051;-70
2023/01/14 06:43:24;;;;;;;7.35;2.20;;;;;;;;;;5035355;28;20432;-70
2023/01/14 06:45:54;;;;;;;16.55;4.93;;;;;;;;;;5035347;28;20029;-70
2023/01/14 06:48:21;;;;;;;10.15;1.80;;;;;;;;;;5034969;28;20410;-70
2023/01/14 06:50:47;;;;;;;7.07;1.60;;;;;;;;;;5035219;28;20022;-70
2023/01/14 06:53:13;;;;;;;6.63;1.60;;;;;;;;;;5034373;28;20044;-70
2023/01/14 06:55:40;;;;;;;3.53;1.40;;;;;;;;;;5015372;28;20580;-70
2023/01/14 06:58:06;;;;;;;5.07;1.40;;;;;;;;;;5015293;28;20032;-70
2023/01/14 07:00:33;;;;;;;4.72;1.15;;;;;;;;;;5015323;28;20025;-70
2023/01/14 07:02:59;;;;;;;9.55;2.50;;;;;;;;;;5015041;28;20033;-70
2023/01/14 07:05:25;;;;;;;4.93;1.13;;;;;;;;;;5015399;28;20052;-69
2023/01/14 07:07:52;;;;;;;4.97;1.20;;;;;;;;;;5015162;28;20030;-69
2023/01/14 07:10:18;;;;;;;3.30;1.10;;;;;;;;;;5033993;28;20033;-70
2023/01/14 07:12:48;;;;;;;9.23;1.40;;;;;;;;;;5066853;28;20491;-70
2023/01/14 07:15:15;;;;;;;4.20;1.10;;;;;;;;;;5035178;28;20034;-69
2023/01/14 07:17:42;;;;;;;3.90;1.13;;;;;;;;;;5034375;28;20026;-70
2023/01/14 07:20:09;;;;;;;4.55;1.48;;;;;;;;;;5033940;28;20025;-70
2023/01/14 07:22:35;;;;;;;5.28;1.20;;;;;;;;;;5034710;28;20071;-70
2023/01/14 07:25:02;;;;;;;4.03;1.13;;;;;;;;;;5033394;28;20022;-70
2023/01/14 07:27:28;;;;;;;5.60;1.00;;;;;;;;;;5034686;28;20020;-70
2023/01/14 07:29:55;;;;;;;5.93;1.20;;;;;;;;;;5034633;28;20036;-70
2023/01/14 07:32:21;;;;;;;4.80;1.42;;;;;;;;;;5034305;28;20504;-70
2023/01/14 07:34:47;;;;;;;5.65;1.80;;;;;;;;;;5034532;28;20086;-70
2023/01/14 07:37:14;;;;;;;5.22;1.30;;;;;;;;;;5034518;28;20022;-69
2023/01/14 07:39:40;;;;;;;3.08;1.10;;;;;;;;;;5034344;28;20025;-70
2023/01/14 07:42:06;;;;;;;5.35;1.45;;;;;;;;;;5034537;28;20025;-70
2023/01/14 07:44:32;;;;;;;3.95;1.45;;;;;;;;;;5034392;28;20021;-70
2023/01/14 07:46:59;;;;;;;4.60;1.10;;;;;;;;;;5033797;28;20010;-70
2023/01/14 07:49:25;;;;;;;4.57;1.25;;;;;;;;;;5034524;28;20067;-70
2023/01/14 07:51:52;;;;;;;3.83;1.00;;;;;;;;;;5034019;28;20050;-70
2023/01/14 07:54:18;;;;;;;3.13;1.15;;;;;;;;;;5034022;28;20528;-70
2023/01/14 07:56:45;;;;;;;3.83;1.00;;;;;;;;;;5034202;28;20021;-70
2023/01/14 07:59:11;;;;;;;3.33;0.90;;;;;;;;;;5034122;28;20051;-70
2023/01/14 08:01:38;;;;;;;5.25;1.45;;;;;;;;;;5033922;28;20025;-70
2023/01/14 08:04:04;;;;;;;2.38;1.00;;;;;;;;;;5033914;28;20029;-70
2023/01/14 08:06:31;;;;;;;4.10;1.23;;;;;;;;;;5033943;28;20026;-70
2023/01/14 08:09:00;;;;;;;4.57;1.60;;;;;;;;;;5033724;28;20036;-70
2023/01/14 08:11:26;;;;;;;6.75;1.50;;;;;;;;;;5033836;28;20032;-70
2023/01/14 08:13:52;;;;;;;3.90;1.77;;;;;;;;;;5033900;28;20037;-70
2023/01/14 08:16:19;;;;;;;4.43;1.40;;;;;;;;;;5033656;28;20037;-70
2023/01/14 08:18:45;;;;;;;5.63;1.60;;;;;;;;;;5033543;28;20028;-70
2023/01/14 08:21:12;;;;;;;5.70;1.60;;;;;;;;;;5033782;28;20041;-69
2023/01/14 08:23:38;;;;;;;5.80;1.60;;;;;;;;;;5033370;28;20025;-70
2023/01/14 08:26:06;;;;;;;5.32;1.38;;;;;;;;;;5033461;28;20040;-70
2023/01/14 08:28:33;;;;;;;1.88;1.30;;;;;;;;;;5033528;28;20009;-69
2023/01/14 08:31:03;;;;;;;5.53;1.40;;;;;;;;;;5032768;28;20043;-70
2023/01/14 08:33:29;;;;;;;5.00;1.38;;;;;;;;;;5032896;28;20036;-70
2023/01/14 08:35:56;;;;;;;5.20;1.50;;;;;;;;;;5033502;28;20018;-70
2023/01/14 08:38:22;;;;;;;6.30;1.63;;;;;;;;;;5033584;28;20033;-70
2023/01/14 08:40:48;;;;;;;2.40;1.30;;;;;;;;;;5033017;28;20022;-70
2023/01/14 08:43:15;;;;;;;4.00;1.48;;;;;;;;;;5032151;28;20034;-70
2023/01/14 08:45:44;;;;;;;7.60;1.30;;;;;;;;;;5032752;28;20032;-70
2023/01/14 08:48:10;;;;;;;4.93;1.10;;;;;;;;;;5032986;28;20504;-70
2023/01/14 08:50:36;;;;;;;6.25;1.60;;;;;;;;;;5033200;28;20025;-69
2023/01/14 08:53:04;;;;;;;7.35;2.00;;;;;;;;;;5032662;28;20037;-70
2023/01/14 08:55:30;;;;;;;4.25;1.73;;;;;;;;;;5032894;28;20036;-70
2023/01/14 08:57:57;;;;;;;8.75;2.50;;;;;;;;;;5033208;28;20029;-70
2023/01/14 09:00:24;;;;;;;1.90;1.10;;;;;;;;;;5031644;28;20025;-70
2023/01/14 09:02:50;;;;;;;7.82;1.55;;;;;;;;;;5032753;28;20036;-70
2023/01/14 09:05:16;;;;;;;3.05;1.23;;;;;;;;;;5032884;28;20386;-70
2023/01/14 09:18:43;;;;;;;4.20;1.60;;;;;;;;;;5013108;28;20030;-70
2023/01/14 09:21:09;;;;;;;6.82;2.78;;;;;;;;;;5012975;28;20033;-70
2023/01/14 09:23:35;;;;;;;5.78;2.30;;;;;;;;;;5012632;28;20490;-70
2023/01/14 09:26:02;;;;;;;5.65;1.90;;;;;;;;;;5044524;28;20150;-70
2023/01/14 09:28:28;;;;;;;4.50;2.10;;;;;;;;;;5012424;28;20018;-70
2023/01/14 09:30:54;;;;;;;6.28;1.30;;;;;;;;;;5012742;28;20032;-69
2023/01/14 09:33:21;;;;;;;7.40;2.47;;;;;;;;;;5012356;28;20087;-70
2023/01/14 09:35:47;;;;;;;5.85;2.30;;;;;;;;;;5044528;28;20041;-71
2023/01/14 09:38:14;;;;;;;3.78;1.80;;;;;;;;;;5012835;28;20029;-70
2023/01/14 09:40:40;;;;;;;5.35;3.47;;;;;;;;;;5012375;28;20034;-70
2023/01/14 09:43:14;;;;;;;5.25;2.35;;;;;;;;;;5011847;28;20028;-70
2023/01/14 09:45:40;;;;;;;3.53;1.77;;;;;;;;;;5012508;28;20024;-70
2023/01/14 09:48:11;;;;;;;4.75;2.00;;;;;;;;;;5010996;28;20022;-70
2023/01/14 09:50:37;;;;;;;;;;;;;;;;;;5012561;28;20034;-70
2023/01/14 09:53:14;;;;;;;3.97;1.73;;;;;;;;;;5026685;28;19921;-70
2023/01/14 09:55:44;;;;;;;3.58;1.67;;;;;;;;;;5031982;28;20038;-70
2023/01/14 09:58:16;;;;;;;4.50;1.73;;;;;;;;;;5032128;28;20026;-70
2023/01/14 10:01:02;;;;;;;3.83;1.50;;;;;;;;;;5031863;28;20371;-70
2023/01/14 10:03:31;;;;;;;4.60;2.72;;;;;;;;;;5031859;28;20393;-70
2023/01/14 10:05:59;;;;;;;4.70;2.20;;;;;;;;;;5032235;28;20052;-70
2023/01/14 10:08:26;;;;;;;5.80;2.47;;;;;;;;;;5032035;28;20018;-70
2023/01/14 10:10:53;;;;;;;6.65;2.60;;;;;;;;;;5032159;28;20039;-71
2023/01/14 10:13:25;;;;;;;6.35;2.70;;;;;;;;;;5030770;28;20033;-70
2023/01/14 10:16:00;;;;;;;10.68;2.08;;;;;;;;;;5031978;28;20020;-70
2023/01/14 10:18:29;;;;;;;4.30;2.17;;;;;;;;;;5064009;28;20026;-70
2023/01/14 10:20:57;;;;;;;2.95;1.42;;;;;;;;;;5032586;28;20028;-70
2023/01/14 10:23:26;;;;;;;4.15;1.55;;;;;;;;;;5031710;28;20029;-70
2023/01/14 10:25:54;;;;;;;2.60;1.30;;;;;;;;;;5031800;28;20051;-70
2023/01/14 10:28:25;;;;;;;4.20;1.80;;;;;;;;;;5030852;28;20029;-70
2023/01/14 10:30:52;;;;;;;4.30;1.80;;;;;;;;;;5032178;28;20025;-71
2023/01/14 10:33:19;;;;;;;5.30;2.17;;;;;;;;;;5031754;28;20393;-70
2023/01/14 10:35:47;;;;;;;4.60;2.13;;;;;;;;;;5031691;28;20021;-70
2023/01/14 10:38:17;;;;;;;4.90;1.85;;;;;;;;;;5031734;28;20519;-70
2023/01/14 10:40:44;;;;;;;7.43;3.73;;;;;;;;;;5031273;28;20025;-70
2023/01/14 10:43:15;;;;;;;8.45;3.67;;;;;;;;;;5031498;28;20264;-70
2023/01/14 10:45:41;;;;;;;5.18;2.10;;;;;;;;;;5031456;28;20017;-70
2023/01/14 10:48:10;;;;;;;11.32;5.40;;;;;;;;;;5031462;28;20026;-70
2023/01/14 10:50:36;;;;;;;5.07;3.03;;;;;;;;;;5031425;28;20034;-70
2023/01/14 10:53:19;;;;;;;3.78;1.98;;;;;;;;;;5031556;28;20026;-70
2023/01/14 10:56:02;;;;;;;3.72;2.22;;;;;;;;;;5033341;28;20040;-70
2023/01/14 10:58:28;;;;;;;5.35;1.92;;;;;;;;;;5034087;28;20040;-70
2023/01/14 11:01:03;;;;;;;4.90;2.17;;;;;;;;;;5035101;28;20512;-70
2023/01/14 11:03:38;;;;;;;3.75;1.73;;;;;;;;;;5034964;28;20399;-70
2023/01/14 11:06:12;;;;;;;4.20;2.00;;;;;;;;;;5034979;28;20026;-70
2023/01/14 11:08:48;;;;;;;3.08;1.42;;;;;;;;;;5034955;28;20027;-70
2023/01/14 11:11:16;;;;;;;2.88;1.50;;;;;;;;;;5034579;28;20031;-69
2023/01/14 11:13:48;;;;;;;3.95;1.30;;;;;;;;;;5035015;28;20037;-69
2023/01/14 11:16:34;;;;;;;6.50;2.60;;;;;;;;;;5034737;28;20489;-70
2023/01/14 11:19:02;;;;;;;5.47;1.30;;;;;;;;;;5034796;28;20039;-69
2023/01/14 11:21:35;;;;;;;3.25;1.45;;;;;;;;;;5034439;28;20021;-70
2023/01/14 11:24:02;;;;;;;3.65;1.48;;;;;;;;;;5034301;28;20030;-70
2023/01/14 11:26:47;;;;;;;4.63;2.28;;;;;;;;;;5034629;28;20088;-70
2023/01/14 11:29:16;;;;;;;3.13;1.60;;;;;;;;;;5034878;28;20075;-70
2023/01/14 11:31:43;;;;;;;2.95;1.30;;;;;;;;;;5034439;28;20067;-70
2023/01/14 11:34:29;;;;;;;4.28;1.40;;;;;;;;;;5034411;28;20033;-70
2023/01/14 11:37:20;;;;;;;;;;;;;;;;;;5035195;28;20083;-70
2023/01/14 11:39:49;;;;;;;4.40;1.40;;;;;;;;;;5032777;28;20300;-70
2023/01/14 11:42:21;;;;;;;2.72;1.33;;;;;;;;;;5034330;28;20037;-70
2023/01/14 11:44:58;;;;;;;6.72;4.70;;;;;;;;;;5034270;28;20031;-71
2023/01/14 11:47:25;;;;;;;4.20;2.15;;;;;;;;;;5034078;28;20405;-70
2023/01/14 11:50:10;;;;;;;9.60;2.80;;;;;;;;;;5034200;28;20028;-70
2023/01/14 11:52:36;;;;;;;7.03;3.17;;;;;;;;;;5033528;28;20050;-70
2023/01/14 11:55:03;;;;;;;7.20;3.47;;;;;;;;;;5034095;28;20030;-70
2023/01/14 11:57:29;;;;;;;4.15;2.00;;;;;;;;;;5066096;28;20038;-70
2023/01/14 11:59:55;;;;;;;3.58;1.80;;;;;;;;;;5034014;28;20025;-70
2023/01/14 12:02:24;;;;;;;4.35;1.73;;;;;;;;;;5033914;28;20067;-69
2023/01/14 12:04:53;;;;;;;4.05;1.60;;;;;;;;;;5033890;28;20485;-70
2023/01/14 12:07:43;;;;;;;3.42;1.42;;;;;;;;;;5033391;28;20060;-70
2023/01/14 12:10:16;;;;;;;3.45;1.83;;;;;;;;;;5033879;28;20052;-70
2023/01/14 12:18:32;;;;;;;4.65;1.95;;;;;;;;;;5034054;28;20017;-71
2023/01/14 12:20:59;;;;;;;4.20;2.42;;;;;;;;;;5033837;28;20032;-70
2023/01/14 12:23:26;;;;;;;2.63;1.83;;;;;;;;;;5033470;28;20033;-70
2023/01/14 12:25:53;;;;;;;4.13;2.10;;;;;;;;;;5033652;28;20486;-70
2023/01/14 12:28:35;;;;;;;3.65;2.10;;;;;;;;;;5033467;28;20029;-70
2023/01/14 12:31:01;;;;;;;;;;;;;;;;;;5034082;28;20036;-71
2023/01/14 12:33:59;;;;;;;3.88;2.13;;;;;;;;;;5033248;28;19919;-70
2023/01/14 12:36:27;;;;;;;5.00;2.40;;;;;;;;;;5030675;28;20529;-70
2023/01/14 12:47:29;;;;;;;2.75;1.90;;;;;;;;;;5030842;28;20067;-70
2023/01/14 12:49:56;;;;;;;4.43;2.20;;;;;;;;;;5030980;28;20514;-70
2023/01/14 12:52:33;;;;;;;6.07;2.80;;;;;;;;;;5013911;28;20045;-70
2023/01/14 12:55:01;;;;;;;3.58;2.33;;;;;;;;;;5030905;28;20045;-70
2023/01/14 12:57:28;;;;;;;5.75;2.17;;;;;;;;;;5030775;28;20049;-70
2023/01/14 13:00:06;;;;;;;4.05;2.22;;;;;;;;;;5030856;28;20045;-70
2023/01/14 13:02:32;;;;;;;4.70;1.85;;;;;;;;;;5030839;28;20504;-70
2023/01/14 13:05:22;;;;;;;3.35;1.98;;;;;;;;;;5030788;28;20033;-70
2023/01/14 13:07:51;;;;;;;7.07;3.67;;;;;;;;;;5030623;28;20029;-70
2023/01/14 13:10:28;;;;;;;4.40;2.10;;;;;;;;;;5030324;28;20029;-70
2023/01/14 13:12:55;;;;;;;5.55;2.30;;;;;;;;;;5014769;28;20379;-70
2023/01/14 13:15:26;;;;;;;4.63;2.95;;;;;;;;;;5012882;28;20038;-70
2023/01/14 13:17:59;;;;;;;6.32;2.88;;;;;;;;;;5012432;28;20018;-70
2023/01/14 13:20:32;;;;;;;6.00;2.28;;;;;;;;;;5044334;28;20030;-70
2023/01/14 13:22:59;;;;;;;6.63;2.40;;;;;;;;;;5013020;28;20072;-70
2023/01/14 13:25:34;;;;;;;3.45;2.22;;;;;;;;;;5012649;28;20390;-70
2023/01/14 13:28:21;;;;;;;5.70;2.45;;;;;;;;;;5012909;28;20037;-70
2023/01/14 13:30:51;;;;;;;4.07;2.10;;;;;;;;;;5012005;28;20406;-71
2023/01/14 13:33:19;;;;;;;4.63;2.40;;;;;;;;;;5012768;28;20052;-70
2023/01/14 13:36:21;;;;;;;9.32;2.40;;;;;;;;;;5012260;28;20030;-70
2023/01/14 13:39:01;;;;;;;3.78;2.42;;;;;;;;;;5010193;28;20568;-70
2023/01/14 13:41:33;;;;;;;3.80;2.40;;;;;;;;;;5010184;28;20426;-70
2023/01/14 13:44:00;;;;;;;7.07;2.45;;;;;;;;;;5010285;28;20071;-70
2023/01/14 13:46:32;;;;;;;5.22;2.22;;;;;;;;;;5010410;28;20059;-70
2023/01/14 13:49:00;;;;;;;4.95;2.35;;;;;;;;;;5010186;28;20219;-69
2023/01/14 13:51:26;;;;;;;5.43;2.40;;;;;;;;;;4993718;28;20053;-70
2023/01/14 13:53:58;;;;;;;4.95;2.55;;;;;;;;;;5010217;28;20068;-70
2023/01/14 13:56:25;;;;;;;4.60;2.47;;;;;;;;;;5010289;28;20532;-70
2023/01/14 13:58:53;;;;;;;9.85;2.92;;;;;;;;;;5010288;28;20051;-70
2023/01/14 14:01:26;;;;;;;4.45;2.40;;;;;;;;;;4993684;28;20430;-70
2023/01/14 14:03:56;;;;;;;5.05;2.50;;;;;;;;;;5010087;28;20051;-70
2023/01/14 14:06:22;;;;;;;7.63;2.88;;;;;;;;;;4993672;28;20417;-69
2023/01/14 14:08:53;;;;;;;4.70;2.08;;;;;;;;;;5016165;28;20018;-70
2023/01/14 14:11:22;;;;;;;4.57;1.95;;;;;;;;;;5029966;28;20047;-69
2023/01/14 14:14:04;;;;;;;5.47;2.40;;;;;;;;;;5013107;28;20042;-69
2023/01/14 14:16:46;;;;;;;6.60;2.35;;;;;;;;;;5012098;28;20024;-70
2023/01/14 14:19:15;;;;;;;4.28;2.17;;;;;;;;;;5012038;28;20037;-70
2023/01/14 14:21:53;;;;;;;5.68;2.13;;;;;;;;;;5029557;28;20025;-70
2023/01/14 14:24:20;;;;;;;4.93;2.33;;;;;;;;;;5031952;28;20025;-70
2023/01/14 14:26:47;;;;;;;5.15;2.55;;;;;;;;;;5031588;28;20063;-70
2023/01/14 14:29:15;;;;;;;8.05;3.00;;;;;;;;;;5065212;28;20033;-70
2023/01/14 14:31:44;;;;;;;10.10;3.30;;;;;;;;;;5035976;28;20405;-70
2023/01/14 14:34:11;;;;;;;6.93;3.10;;;;;;;;;;5035294;28;20040;-70
2023/01/14 14:36:39;;;;;;;7.00;2.97;;;;;;;;;;5035663;28;20028;-70
2023/01/14 14:39:18;;;;;;;6.45;3.30;;;;;;;;;;5067818;28;20030;-70
2023/01/14 14:41:46;;;;;;;7.45;2.88;;;;;;;;;;5034332;28;20026;-70
2023/01/14 14:44:25;;;;;;;10.52;4.43;;;;;;;;;;5035431;28;20490;-69
2023/01/14 14:46:52;;;;;;;11.40;4.72;;;;;;;;;;5033842;28;20030;-68
2023/01/14 14:49:29;;;;;;;10.07;4.25;;;;;;;;;;5034103;28;20033;-70
2023/01/14 14:51:56;;;;;;;12.68;5.03;;;;;;;;;;5035185;28;20045;-69
2023/01/14 14:54:25;;;;;;;9.07;4.00;;;;;;;;;;5035046;28;20517;-70
2023/01/14 14:56:51;;;;;;;8.80;3.72;;;;;;;;;;5035197;28;20014;-70
2023/01/14 14:59:18;;;;;;;13.20;4.28;;;;;;;;;;5035098;28;20075;-70
2023/01/14 15:01:44;;;;;;;8.52;3.35;;;;;;;;;;5033524;28;20030;-70
2023/01/14 15:04:15;;;;;;;8.20;3.67;;;;;;;;;;5035153;28;20028;-69
2023/01/14 15:06:41;;;;;;;;;;;;;;;;;;5035749;28;20037;-69
2023/01/14 15:09:09;;;;;;;7.32;3.60;;;;;;;;;;5034980;28;19913;-70
2023/01/14 15:11:46;;;;;;;9.73;3.60;;;;;;;;;;5035205;28;20014;-70
2023/01/14 15:14:17;;;;;;;9.68;3.88;;;;;;;;;;5034902;28;20482;-69
2023/01/14 15:16:43;;;;;;;;;;;;;;;;;;5035201;28;20035;-70
2023/01/14 15:19:10;;;;;;;8.15;3.53;;;;;;;;;;5035054;28;19909;-70
2023/01/14 15:21:37;;;;;;;11.35;3.90;;;;;;;;;;5034767;28;20029;-69
2023/01/14 15:24:13;;;;;;;6.57;3.88;;;;;;;;;;5034629;28;20040;-70
2023/01/14 15:26:41;;;;;;;8.13;4.03;;;;;;;;;;5034844;28;20035;-71
2023/01/14 15:29:15;;;;;;;9.98;3.75;;;;;;;;;;5034676;28;20050;-72